CDT,Max TemperatureF,Mean TemperatureF,Min TemperatureF,Max Dew PointF,MeanDew PointF,Min DewpointF,Max Humidity, Mean Humidity, Min Humidity, Max Sea Level PressureIn, Mean Sea Level PressureIn, Min Sea Level PressureIn, Max VisibilityMiles, Mean VisibilityMiles, Min VisibilityMiles, Max Wind SpeedMPH, Mean Wind SpeedMPH, Max Gust SpeedMPH,PrecipitationIn, CloudCover, Events, WindDirDegrees
2012-10-1,75,64,53,46,41,12,72,47,9,29.90,29.85,29.80,10,9,2,9,4,16,0.00,0,,68
2012-10-2,78,64,50,46,38,16,76,46,9,29.90,29.86,29.83,10,8,2,9,1,9,0.00,0,,20
2012-10-3,82,66,51,54,43,25,72,50,12,30.02,29.94,29.89,10,8,2,13,2,16,0.00,0,,185
2012-10-4,73,60,48,55,49,43,82,70,43,30.28,30.11,30.02,10,10,3,18,8,22,0.59,4,Rain,249
2012-10-5,51,45,39,43,36,28,82,67,43,30.25,30.22,30.18,10,10,10,16,4,24,0.00,5,Rain,305
2012-10-6,50,42,33,30,28,25,75,57,40,30.27,30.24,30.19,10,10,10,17,7,24,0.00,3,,298
2012-10-7,57,46,35,30,24,9,75,45,14,30.28,30.21,30.14,10,10,10,14,4,18,0.00,2,,265
2012-10-8,66,54,41,36,29,21,66,44,18,30.14,30.07,29.97,10,10,7,21,9,29,0.00,0,,203
2012-10-9,71,58,46,45,39,34,82,55,29,30.04,29.94,29.85,10,10,10,20,12,26,0.06,2,Rain,229
2012-10-10,62,48,35,37,27,12,76,48,14,30.24,30.16,30.05,10,10,10,18,7,23,0.00,0,,269
2012-10-11,75,60,44,48,36,32,66,46,21,30.26,30.13,30.06,10,10,5,15,9,22,0.00,1,,208
2012-10-12,66,56,46,45,29,16,55,38,15,30.42,30.31,30.18,10,10,7,15,10,21,0.00,3,,85
2012-10-13,75,66,57,64,56,45,83,72,55,30.14,29.92,29.76,10,8,2,20,8,34,1.61,6,Rain,172
2012-10-14,68,60,51,61,53,45,83,73,63,29.91,29.71,29.52,10,9,5,26,10,36,0.44,6,Rain,243
2012-10-15,69,58,46,45,42,37,82,59,31,30.01,29.95,29.91,10,9,2,7,4,,0.00,0,,265
2012-10-16,84,68,53,52,46,39,67,47,21,29.90,29.66,29.49,10,7,0,26,9,39,0.00,1,,179
2012-10-17,71,61,51,57,49,39,82,63,38,29.54,29.47,29.36,10,10,5,17,11,25,0.51,4,Rain,223
2012-10-18,55,52,48,41,37,28,76,57,36,29.50,29.47,29.44,10,10,3,29,13,37,0.15,5,Rain,243
2012-10-19,60,53,46,45,43,39,82,73,55,29.76,29.60,29.43,10,8,2,18,13,29,0.03,8,Rain,277
2012-10-20,62,54,46,46,44,41,82,69,52,29.89,29.84,29.76,10,10,7,12,5,18,0.00,5,,202
2012-10-21,80,64,48,61,51,43,82,64,42,29.92,29.88,29.85,10,9,5,13,7,,0.00,1,,121
2012-10-22,82,75,68,70,64,57,78,70,58,29.90,29.85,29.81,10,9,4,13,5,24,0.34,6,Rain,157
2012-10-23,78,73,68,66,63,61,78,71,61,29.90,29.85,29.79,10,10,10,16,8,22,0.09,4,Rain,189
2012-10-24,84,78,71,66,63,59,73,62,54,29.89,29.84,29.76,10,10,10,17,10,24,0.00,2,,189
2012-10-25,78,61,44,64,50,30,77,67,57,30.23,29.88,29.69,10,10,2,25,15,37,0.27,6,Rain,260
2012-10-26,51,44,37,30,27,25,70,53,35,30.40,30.35,30.24,10,10,10,17,10,26,0.00,1,,339
2012-10-27,50,41,32,28,26,25,75,56,40,30.40,30.33,30.27,10,10,10,12,3,17,0.00,0,,1
2012-10-28,53,43,33,30,27,25,70,55,35,30.33,30.30,30.27,10,10,10,8,4,17,0.00,1,,360
2012-10-29,55,44,32,34,24,10,75,50,17,30.35,30.28,30.17,10,10,7,8,1,,0.00,2,,29
2012-10-30,60,48,37,27,22,7,60,40,13,30.16,30.02,29.92,10,10,5,18,7,28,0.00,0,,336
2012-10-31,57,45,33,28,19,0,70,42,10,30.00,29.97,29.94,10,10,7,14,8,23,0.00,0,,310